createdAt,value
2019-04-20T00:00:37.195Z,65.70
2019-04-20T00:03:05.692Z,65.70
2019-04-20T00:05:35.041Z,65.60
2019-04-20T00:08:08.939Z,66.90
2019-04-20T00:10:42.508Z,66.00
2019-04-20T00:13:16.700Z,66.60
2019-04-20T00:15:34.667Z,66.70
2019-04-20T00:18:06.303Z,67.30
2019-04-20T00:20:35.904Z,67.10
2019-04-20T00:23:19.873Z,67.70
2019-04-20T00:26:13.183Z,68.20
2019-04-20T00:28:54.883Z,68.40
2019-04-20T00:31:19.025Z,68.50
2019-04-20T00:33:47.102Z,69.40
2019-04-20T00:36:03.564Z,69.10
2019-04-20T00:38:35.164Z,69.10
2019-04-20T00:41:07.015Z,69.10
2019-04-20T00:43:36.114Z,69.80
2019-04-20T00:46:08.273Z,70.00
2019-04-20T00:48:41.598Z,70.00
2019-04-20T00:51:24.000Z,70.40
2019-04-20T00:53:39.734Z,70.80
2019-04-20T00:56:03.451Z,70.30
2019-04-20T00:58:46.629Z,70.80
2019-04-20T01:01:20.326Z,71.00
2019-04-20T01:03:48.634Z,71.40
2019-04-20T01:06:25.014Z,72.20
2019-04-20T01:08:53.025Z,72.20
2019-04-20T01:11:26.978Z,72.50
2019-04-20T01:13:56.059Z,72.80
2019-04-20T01:16:33.565Z,72.60
2019-04-20T01:18:51.996Z,73.20
2019-04-20T01:21:24.805Z,73.50
2019-04-20T01:23:56.167Z,73.70
2019-04-20T01:26:22.716Z,73.70
2019-04-20T01:29:03.918Z,74.40
2019-04-20T01:31:29.583Z,74.80
2019-04-20T01:34:00.676Z,75.00
2019-04-20T01:36:40.702Z,75.60
2019-04-20T01:39:02.808Z,75.70
2019-04-20T01:41:22.414Z,75.70
2019-04-20T01:43:52.166Z,75.90
2019-04-20T01:46:23.993Z,75.60
2019-04-20T01:48:51.028Z,75.30
2019-04-20T01:51:25.518Z,75.90
2019-04-20T01:54:12.074Z,76.70
2019-04-20T01:56:40.367Z,77.30
2019-04-20T01:59:20.147Z,77.60
2019-04-20T02:01:55.252Z,77.50
2019-04-20T02:04:27.181Z,77.20
2019-04-20T02:06:53.977Z,77.10
2019-04-20T02:09:24.035Z,77.70
2019-04-20T02:11:52.026Z,78.50
2019-04-20T02:14:28.726Z,78.70
2019-04-20T02:17:01.723Z,79.20
2019-04-20T02:19:34.446Z,79.10
2019-04-20T02:22:03.834Z,79.40
2019-04-20T02:24:21.690Z,79.10
2019-04-20T02:26:51.955Z,79.90
2019-04-20T02:29:46.062Z,80.10
2019-04-20T02:35:01.634Z,80.00
2019-04-20T02:37:36.643Z,80.70
2019-04-20T02:40:00.260Z,80.50
2019-04-20T02:42:35.317Z,80.20
2019-04-20T02:45:09.882Z,80.20
2019-04-20T02:47:41.269Z,80.70
2019-04-20T02:57:44.232Z,82.30
2019-04-20T03:02:18.428Z,82.80
2019-04-20T03:04:42.250Z,83.30
2019-04-20T03:07:15.257Z,83.20
2019-04-20T03:09:50.506Z,84.10
2019-04-20T03:12:30.415Z,84.30
2019-04-20T03:14:47.790Z,85.00
2019-04-20T03:17:27.177Z,85.00
2019-04-20T03:19:51.299Z,84.80
2019-04-20T03:22:33.456Z,85.50
2019-04-20T03:24:54.137Z,85.00
2019-04-20T03:27:25.100Z,85.70
2019-04-20T03:29:56.674Z,86.40
2019-04-20T03:37:34.509Z,87.00
2019-04-20T03:39:55.571Z,88.30
2019-04-20T03:42:12.026Z,88.80
2019-04-20T03:44:50.496Z,88.90
2019-04-20T03:47:13.664Z,89.30
2019-04-20T03:49:59.550Z,88.90
2019-04-20T03:52:31.041Z,88.80
2019-04-20T03:55:19.866Z,89.00
2019-04-20T04:00:45.909Z,90.10
2019-04-20T04:03:47.550Z,89.90
2019-04-20T04:05:50.914Z,89.60
2019-04-20T04:08:17.056Z,90.10
2019-04-20T04:10:54.817Z,90.20
2019-04-20T04:13:16.851Z,90.20
2019-04-20T04:15:51.995Z,90.00
2019-04-20T04:18:40.990Z,90.20
2019-04-20T04:21:12.629Z,90.70
2019-04-20T04:23:56.109Z,90.40
2019-04-20T04:26:22.337Z,90.30
2019-04-20T04:28:53.802Z,90.80
2019-04-20T04:31:26.301Z,90.40
2019-04-20T04:34:10.501Z,90.30
2019-04-20T04:36:21.198Z,90.30
2019-04-20T04:38:58.853Z,90.30
2019-04-20T04:41:26.575Z,90.30
2019-04-20T04:43:53.879Z,90.40
2019-04-20T04:46:10.152Z,90.60
2019-04-20T04:48:42.730Z,90.30
2019-04-20T04:51:15.622Z,90.90
2019-04-20T04:53:47.802Z,90.90
2019-04-20T04:56:14.158Z,90.90
2019-04-20T04:58:40.524Z,90.70
2019-04-20T05:01:14.761Z,90.80
2019-04-20T05:04:03.269Z,90.40
2019-04-20T05:06:29.095Z,90.50
2019-04-20T05:08:45.314Z,90.50
2019-04-20T05:11:11.386Z,90.50
2019-04-20T05:13:48.906Z,90.10
2019-04-20T05:16:27.606Z,89.90
2019-04-20T05:19:05.130Z,90.00
2019-04-20T05:21:30.310Z,89.60
2019-04-20T05:23:59.325Z,89.40
2019-04-20T05:26:35.896Z,89.10
2019-04-20T05:28:58.948Z,89.00
2019-04-20T05:31:23.575Z,89.10
2019-04-20T05:34:17.347Z,89.30
2019-04-20T05:36:41.423Z,88.90
2019-04-20T05:39:22.480Z,88.50
2019-04-20T05:41:37.387Z,87.80
2019-04-20T05:44:11.520Z,87.50
2019-04-20T05:46:40.970Z,87.50
2019-04-20T05:49:18.985Z,87.50
2019-04-20T05:51:46.177Z,87.10
2019-04-20T05:54:17.812Z,87.30
2019-04-20T05:56:47.806Z,88.20
2019-04-20T05:59:11.538Z,87.10
2019-04-20T06:01:54.361Z,87.00
2019-04-20T06:04:17.343Z,86.60
2019-04-20T06:06:52.070Z,86.90
2019-04-20T06:09:15.654Z,86.60
2019-04-20T06:11:56.081Z,87.40
2019-04-20T06:14:10.452Z,87.30
2019-04-20T06:17:10.127Z,86.20
2019-04-20T06:19:35.865Z,86.10
2019-04-20T06:22:21.759Z,85.30
2019-04-20T06:24:57.141Z,86.00
2019-04-20T06:27:16.436Z,84.20
2019-04-20T06:29:45.850Z,83.40
2019-04-20T06:32:26.098Z,84.20
2019-04-20T06:34:41.581Z,83.30
2019-04-20T06:37:10.174Z,83.10
2019-04-20T06:39:50.145Z,82.80
2019-04-20T06:42:15.338Z,82.40
2019-04-20T06:44:41.392Z,81.90
2019-04-20T06:47:33.722Z,81.20
2019-04-20T06:50:01.629Z,80.00
2019-04-20T06:52:25.618Z,79.20
2019-04-20T06:55:03.444Z,79.30
2019-04-20T06:57:35.748Z,78.90
2019-04-20T07:00:07.368Z,78.00
2019-04-20T07:02:43.076Z,76.90
2019-04-20T07:05:07.068Z,76.80
2019-04-20T07:07:36.253Z,76.30
2019-04-20T07:10:13.343Z,75.40
2019-04-20T07:12:32.774Z,74.60
2019-04-20T07:14:55.424Z,73.80
2019-04-20T07:17:48.764Z,74.10
2019-04-20T07:20:04.103Z,73.90
2019-04-20T07:23:02.302Z,74.70
2019-04-20T07:25:23.145Z,75.00
2019-04-20T07:27:49.096Z,73.90
2019-04-20T07:30:18.446Z,73.00
2019-04-20T07:35:20.093Z,72.70
2019-04-20T07:40:23.181Z,73.20
2019-04-20T07:42:51.907Z,71.80
2019-04-20T07:45:26.035Z,71.40
2019-04-20T07:47:59.095Z,70.60
2019-04-20T07:50:18.033Z,69.80
2019-04-20T07:52:43.050Z,69.70
2019-04-20T07:57:47.153Z,68.90
2019-04-20T08:00:26.307Z,67.90
2019-04-20T08:03:16.344Z,66.20
2019-04-20T08:05:36.360Z,65.40
2019-04-20T08:08:17.166Z,64.50
2019-04-20T08:10:48.851Z,63.50
2019-04-20T08:15:51.220Z,63.30
2019-04-20T08:18:21.571Z,61.90
2019-04-20T08:20:48.161Z,62.10
2019-04-20T08:23:17.124Z,61.30
2019-04-20T08:25:40.946Z,61.30
2019-04-20T08:28:16.652Z,60.10
2019-04-20T08:30:56.999Z,59.50
2019-04-20T08:33:31.206Z,58.70
2019-04-20T08:36:04.416Z,58.90
2019-04-20T08:39:00.123Z,58.70
2019-04-20T08:40:57.458Z,58.60
2019-04-20T08:43:42.277Z,58.40
2019-04-20T08:46:06.641Z,57.70
2019-04-20T08:48:39.350Z,57.20
2019-04-20T08:51:03.584Z,56.90
2019-04-20T08:53:36.387Z,56.80
2019-04-20T08:55:55.317Z,56.30
2019-04-20T08:58:14.035Z,55.70
2019-04-20T09:00:51.344Z,54.10
2019-04-20T09:03:19.818Z,55.00
2019-04-20T09:05:52.295Z,54.10
2019-04-20T09:08:21.270Z,52.50
2019-04-20T09:11:02.699Z,52.60
2019-04-20T09:13:24.185Z,51.60
2019-04-20T09:15:44.713Z,51.20
2019-04-20T09:18:34.360Z,50.80
2019-04-20T09:21:05.719Z,50.40
2019-04-20T09:23:45.063Z,49.40
2019-04-20T09:26:25.164Z,49.50
2019-04-20T09:29:13.708Z,48.80
2019-04-20T09:31:43.321Z,48.90
2019-04-20T09:34:55.806Z,46.30
2019-04-20T09:37:25.968Z,44.50
2019-04-20T09:40:00.896Z,44.60
2019-04-20T09:42:13.189Z,43.30
2019-04-20T09:44:46.115Z,42.30
2019-04-20T09:47:12.381Z,41.50
2019-04-20T09:49:53.716Z,40.80
2019-04-20T09:52:28.000Z,38.70
2019-04-20T09:54:58.954Z,38.20
2019-04-20T09:57:29.611Z,38.00
2019-04-20T09:59:57.293Z,37.00
2019-04-20T10:02:18.730Z,37.60
2019-04-20T10:04:42.272Z,37.50
2019-04-20T10:07:24.248Z,35.10
2019-04-20T10:09:59.959Z,34.60
2019-04-20T10:12:29.399Z,33.70
2019-04-20T10:15:04.191Z,32.60
2019-04-20T10:17:30.478Z,33.20
2019-04-20T10:20:03.469Z,31.30
2019-04-20T10:22:28.764Z,31.30
2019-04-20T10:24:57.334Z,30.50
2019-04-20T10:27:26.503Z,30.20
2019-04-20T10:29:55.555Z,30.00
2019-04-20T10:32:33.156Z,30.10
2019-04-20T10:34:55.315Z,30.00
2019-04-20T10:37:27.262Z,29.50
2019-04-20T10:39:56.564Z,29.90
2019-04-20T10:42:26.040Z,29.30
2019-04-20T10:44:57.117Z,29.20
2019-04-20T10:47:25.293Z,28.70
2019-04-20T10:49:56.321Z,28.90
2019-04-20T10:52:24.090Z,28.90
2019-04-20T10:54:52.527Z,28.30
2019-04-20T10:57:21.611Z,28.70
2019-04-20T10:59:50.248Z,28.40
2019-04-20T11:02:19.507Z,27.80
2019-04-20T11:04:48.526Z,27.70
2019-04-20T11:07:17.025Z,27.60
2019-04-20T11:09:45.774Z,28.00
2019-04-20T11:12:30.467Z,28.10
2019-04-20T11:14:58.954Z,28.00
2019-04-20T11:17:29.779Z,27.80
2019-04-20T11:20:07.498Z,27.40
2019-04-20T11:22:36.352Z,27.00
2019-04-20T11:25:06.481Z,26.60
2019-04-20T11:27:36.376Z,26.50
2019-04-20T11:30:08.041Z,26.20
2019-04-20T11:32:37.976Z,25.90
2019-04-20T11:35:13.650Z,26.20
2019-04-20T11:37:37.774Z,25.30
2019-04-20T11:40:10.925Z,25.30
2019-04-20T11:42:39.760Z,24.90
2019-04-20T11:45:11.057Z,25.00
2019-04-20T11:47:39.798Z,25.00
2019-04-20T11:50:09.606Z,24.90
2019-04-20T11:52:43.840Z,24.40
2019-04-20T11:55:10.521Z,24.30
2019-04-20T11:57:39.590Z,24.20
2019-04-20T12:00:13.142Z,23.90
2019-04-20T12:03:00.330Z,24.00
2019-04-20T12:05:37.646Z,23.70
2019-04-20T12:08:06.904Z,23.00
2019-04-20T12:10:35.533Z,22.80
2019-04-20T12:13:05.720Z,22.70
2019-04-20T12:15:36.921Z,22.40
2019-04-20T12:18:05.843Z,22.10
2019-04-20T12:20:34.591Z,20.60
2019-04-20T12:23:06.481Z,20.80
2019-04-20T12:25:36.742Z,20.40
2019-04-20T12:28:07.363Z,18.90
2019-04-20T12:30:37.975Z,18.20
2019-04-20T12:33:11.495Z,17.40
2019-04-20T12:35:40.331Z,17.10
2019-04-20T12:38:12.685Z,16.30
2019-04-20T12:40:42.003Z,16.60
2019-04-20T12:43:13.226Z,16.10
2019-04-20T12:45:42.145Z,16.00
2019-04-20T12:48:11.448Z,15.70
2019-04-20T12:50:43.644Z,15.20
2019-04-20T12:53:12.820Z,15.70
2019-04-20T12:55:41.655Z,15.60
2019-04-20T12:58:10.573Z,15.60
2019-04-20T13:00:45.933Z,15.40
2019-04-20T13:03:14.811Z,15.70
2019-04-20T13:05:45.462Z,14.90
2019-04-20T13:08:24.958Z,14.90
2019-04-20T13:10:50.697Z,14.10
2019-04-20T13:13:26.716Z,13.80
2019-04-20T13:16:06.285Z,13.40
2019-04-20T13:18:45.348Z,13.20
2019-04-20T13:21:16.842Z,13.10
2019-04-20T13:23:47.224Z,12.70
2019-04-20T13:26:19.453Z,12.40
2019-04-20T13:28:48.800Z,12.10
2019-04-20T13:31:21.867Z,12.20
2019-04-20T13:33:51.607Z,12.00
2019-04-20T13:36:21.907Z,11.70
2019-04-20T13:38:54.320Z,12.10
2019-04-20T13:41:24.135Z,12.00
2019-04-20T13:43:55.747Z,12.20
2019-04-20T13:46:25.026Z,12.40
2019-04-20T13:48:55.098Z,12.60
2019-04-20T13:51:23.950Z,11.80
2019-04-20T13:53:53.282Z,11.70
2019-04-20T13:56:23.803Z,11.50
2019-04-20T13:59:01.420Z,11.70
2019-04-20T14:01:39.409Z,11.30
2019-04-20T14:04:22.804Z,11.20
2019-04-20T14:06:53.218Z,10.90
2019-04-20T14:09:21.850Z,10.90
2019-04-20T14:11:51.640Z,10.60
2019-04-20T14:14:21.373Z,10.40
2019-04-20T14:16:50.445Z,10.40
2019-04-20T14:19:19.046Z,10.40
2019-04-20T14:21:48.142Z,10.00
2019-04-20T14:24:17.073Z,10.10
2019-04-20T14:26:45.897Z,10.00
2019-04-20T14:29:14.859Z,9.90
2019-04-20T14:31:43.825Z,10.00
2019-04-20T14:34:13.041Z,9.90
2019-04-20T14:36:41.610Z,9.90
2019-04-20T14:39:10.210Z,9.80
2019-04-20T14:41:38.644Z,9.70
2019-04-20T14:44:16.161Z,9.60
2019-04-20T14:46:45.539Z,9.40
2019-04-20T14:49:14.738Z,9.50
2019-04-20T14:51:43.703Z,9.60
2019-04-20T14:54:13.780Z,9.90
2019-04-20T14:56:43.486Z,10.20
2019-04-20T14:59:19.859Z,10.00
2019-04-20T15:01:50.450Z,9.90
2019-04-20T15:04:22.051Z,9.70
2019-04-20T15:06:49.098Z,9.60
2019-04-20T15:09:18.788Z,9.50
2019-04-20T15:11:48.477Z,9.30
2019-04-20T15:14:17.020Z,9.30
2019-04-20T15:16:46.644Z,9.30
2019-04-20T15:19:17.849Z,9.50
2019-04-20T15:21:51.436Z,9.40
2019-04-20T15:24:19.879Z,9.30
2019-04-20T15:26:48.775Z,9.40
2019-04-20T15:29:18.209Z,9.60
2019-04-20T15:31:47.928Z,9.90
2019-04-20T15:34:17.059Z,9.90
2019-04-20T15:36:46.167Z,10.00
2019-04-20T15:39:16.894Z,9.90
2019-04-20T15:41:45.401Z,9.90
2019-04-20T15:44:15.267Z,10.00
2019-04-20T15:46:43.953Z,10.00
2019-04-20T15:49:13.601Z,10.00
2019-04-20T15:51:43.692Z,10.00
2019-04-20T15:54:13.549Z,10.30
2019-04-20T15:56:49.673Z,10.10
2019-04-20T15:59:12.618Z,10.70
2019-04-20T16:01:42.929Z,10.40
2019-04-20T16:04:23.123Z,10.40
2019-04-20T16:06:43.315Z,10.40
2019-04-20T16:09:12.420Z,10.50
2019-04-20T16:11:41.267Z,10.70
2019-04-20T16:14:10.552Z,11.10
2019-04-20T16:16:40.303Z,11.40
2019-04-20T16:19:12.732Z,11.90
2019-04-20T16:21:39.879Z,12.60
2019-04-20T16:24:10.897Z,13.40
2019-04-20T16:26:41.952Z,14.20
2019-04-20T16:29:11.557Z,15.00
2019-04-20T16:31:40.511Z,15.60
2019-04-20T16:34:09.946Z,16.30
2019-04-20T16:36:38.883Z,17.20
2019-04-20T16:39:09.210Z,17.60
2019-04-20T16:41:38.293Z,18.30
2019-04-20T16:44:07.214Z,18.30
2019-04-20T16:46:36.312Z,18.00
2019-04-20T16:49:05.396Z,18.10
2019-04-20T16:51:34.791Z,18.40
2019-04-20T16:54:03.757Z,19.00
2019-04-20T16:56:32.920Z,19.60
2019-04-20T16:59:09.628Z,20.20
2019-04-20T17:01:31.809Z,20.50
2019-04-20T17:04:07.324Z,20.70
2019-04-20T17:06:32.018Z,20.70
2019-04-20T17:09:01.132Z,20.80
2019-04-20T17:11:30.043Z,20.70
2019-04-20T17:14:01.633Z,20.80
2019-04-20T17:16:28.872Z,21.10
2019-04-20T17:18:57.396Z,21.80
2019-04-20T17:21:28.964Z,21.80
2019-04-20T17:23:57.432Z,22.20
2019-04-20T17:26:30.842Z,22.20
2019-04-20T17:29:03.965Z,22.40
2019-04-20T17:31:43.319Z,22.60
2019-04-20T17:34:31.551Z,22.80
2019-04-20T17:36:42.196Z,23.00
2019-04-20T17:39:14.029Z,23.50
2019-04-20T17:42:00.562Z,23.60
2019-04-20T17:44:28.647Z,23.80
2019-04-20T17:46:51.130Z,24.00
2019-04-20T17:49:25.663Z,24.20
2019-04-20T17:52:05.236Z,24.40
2019-04-20T17:54:22.443Z,24.70
2019-04-20T17:56:52.199Z,24.90
2019-04-20T17:59:22.084Z,25.00
2019-04-20T18:02:10.257Z,25.20
2019-04-20T18:05:04.425Z,25.40
2019-04-20T18:07:27.013Z,25.90
2019-04-20T18:09:56.535Z,26.00
2019-04-20T18:12:08.489Z,26.20
2019-04-20T18:14:52.023Z,26.50
2019-04-20T18:17:17.803Z,26.70
2019-04-20T18:19:52.555Z,26.90
2019-04-20T18:22:21.556Z,27.20
2019-04-20T18:25:12.415Z,27.70
2019-04-20T18:27:37.111Z,27.90
2019-04-20T18:30:07.110Z,28.10
2019-04-20T18:32:27.807Z,28.10
2019-04-20T18:35:01.683Z,28.50
2019-04-20T18:37:28.812Z,28.90
2019-04-20T18:40:05.082Z,29.00
2019-04-20T18:42:34.906Z,29.30
2019-04-20T18:45:17.402Z,29.30
2019-04-20T18:47:52.531Z,29.70
2019-04-20T18:50:09.548Z,29.90
2019-04-20T18:52:29.548Z,30.20
2019-04-20T18:54:59.374Z,30.40
2019-04-20T18:57:30.978Z,30.70
2019-04-20T18:59:59.122Z,31.00
2019-04-20T19:02:33.566Z,31.60
2019-04-20T19:05:00.321Z,31.80
2019-04-20T19:07:34.917Z,31.80
2019-04-20T19:10:02.587Z,32.30
2019-04-20T19:12:41.254Z,32.40
2019-04-20T19:15:28.178Z,33.60
2019-04-20T19:17:49.999Z,33.10
2019-04-20T19:20:25.038Z,33.90
2019-04-20T19:22:53.295Z,34.00
2019-04-20T19:25:27.411Z,33.90
2019-04-20T19:27:55.620Z,34.50
2019-04-20T19:30:34.487Z,34.80
2019-04-20T19:33:08.941Z,34.80
2019-04-20T19:35:34.978Z,34.90
2019-04-20T19:38:04.294Z,35.50
2019-04-20T19:40:33.670Z,35.30
2019-04-20T19:43:02.375Z,35.40
2019-04-20T19:45:52.851Z,36.10
2019-04-20T19:48:09.604Z,36.20
2019-04-20T19:50:50.952Z,36.60
2019-04-20T19:53:23.262Z,36.50
2019-04-20T19:55:39.670Z,37.00
2019-04-20T19:58:10.685Z,37.20
2019-04-20T20:00:59.537Z,37.70
2019-04-20T20:03:27.949Z,37.80
2019-04-20T20:05:58.270Z,37.90
2019-04-20T20:08:31.002Z,37.80
2019-04-20T20:11:00.904Z,37.80
2019-04-20T20:13:34.501Z,37.90
2019-04-20T20:16:02.352Z,38.10
2019-04-20T20:18:41.330Z,38.30
2019-04-20T20:21:12.712Z,38.40
2019-04-20T20:23:27.984Z,38.20
2019-04-20T20:25:57.030Z,38.30
2019-04-20T20:28:33.312Z,38.10
2019-04-20T20:31:09.708Z,38.80
2019-04-20T20:33:45.481Z,38.70
2019-04-20T20:36:05.639Z,38.70
2019-04-20T20:38:36.670Z,38.90
2019-04-20T20:41:10.283Z,38.90
2019-04-20T20:43:40.749Z,38.80
2019-04-20T20:46:12.385Z,39.10
2019-04-20T20:48:54.292Z,38.90
2019-04-20T20:51:14.974Z,39.20
2019-04-20T20:53:38.718Z,39.00
2019-04-20T20:56:09.339Z,39.20
2019-04-20T20:58:45.605Z,39.30
2019-04-20T21:01:09.192Z,40.30
2019-04-20T21:03:34.624Z,40.70
2019-04-20T21:05:58.293Z,40.40
2019-04-20T21:08:27.136Z,40.60
2019-04-20T21:10:56.616Z,40.20
2019-04-20T21:13:32.691Z,39.80
2019-04-20T21:16:02.542Z,39.50
2019-04-20T21:18:46.618Z,39.70
2019-04-20T21:21:11.661Z,40.00
2019-04-20T21:23:37.607Z,40.40
2019-04-20T21:26:11.522Z,41.00
2019-04-20T21:28:40.162Z,41.00
2019-04-20T21:31:15.904Z,41.40
2019-04-20T21:33:40.980Z,41.70
2019-04-20T21:36:13.423Z,41.90
2019-04-20T21:38:42.451Z,42.00
2019-04-20T21:41:15.030Z,42.10
2019-04-20T21:43:42.897Z,42.10
2019-04-20T21:46:12.063Z,42.10
2019-04-20T21:48:57.167Z,42.40
2019-04-20T21:51:27.453Z,42.30
2019-04-20T21:53:41.180Z,42.40
2019-04-20T21:56:12.094Z,42.60
2019-04-20T21:58:48.048Z,43.50
2019-04-20T22:01:22.190Z,43.00
2019-04-20T22:03:42.510Z,43.20
2019-04-20T22:06:11.792Z,43.40
2019-04-20T22:08:45.994Z,43.80
2019-04-20T22:11:11.593Z,44.10
2019-04-20T22:13:43.505Z,44.00
2019-04-20T22:16:12.567Z,44.40
2019-04-20T22:18:56.610Z,44.20
2019-04-20T22:21:21.038Z,44.50
2019-04-20T22:23:54.915Z,44.40
2019-04-20T22:26:24.329Z,44.80
2019-04-20T22:28:42.399Z,45.40
2019-04-20T22:31:11.955Z,45.80
2019-04-20T22:33:44.560Z,45.60
2019-04-20T22:36:13.099Z,46.10
2019-04-20T22:38:50.908Z,46.10
2019-04-20T22:41:19.762Z,46.20
2019-04-20T22:43:46.740Z,46.50
2019-04-20T22:46:19.062Z,46.70
2019-04-20T22:48:54.284Z,47.30
2019-04-20T22:51:32.828Z,47.40
2019-04-20T22:53:56.824Z,47.80
2019-04-20T22:56:35.727Z,47.80
2019-04-20T22:58:57.132Z,48.20
2019-04-20T23:01:27.485Z,48.60
2019-04-20T23:03:48.342Z,48.60
2019-04-20T23:06:17.095Z,49.20
2019-04-20T23:08:47.267Z,49.60
2019-04-20T23:11:21.630Z,49.90
2019-04-20T23:13:48.146Z,50.00
2019-04-20T23:16:17.361Z,50.00
2019-04-20T23:18:46.394Z,50.40
2019-04-20T23:21:17.409Z,51.30
2019-04-20T23:23:45.717Z,52.00
2019-04-20T23:26:16.876Z,52.00
2019-04-20T23:28:48.485Z,52.50
2019-04-20T23:31:19.706Z,52.40
2019-04-20T23:33:45.720Z,52.30
2019-04-20T23:36:14.617Z,52.70
2019-04-20T23:38:48.068Z,53.10
2019-04-20T23:41:13.581Z,53.40
2019-04-20T23:44:06.153Z,53.30
2019-04-20T23:46:43.291Z,53.40
2019-04-20T23:49:25.496Z,54.10
2019-04-20T23:52:11.960Z,54.20
2019-04-20T23:54:25.183Z,54.40
2019-04-20T23:56:51.255Z,54.50
2019-04-20T23:59:26.669Z,55.10
